sensor_id;sensor_type;location;lat;lon;timestamp;temperature;humidity
7502;DHT22;3792;47.740;7.606;2022-12-16T00:00:44;-0.50;99.90
7502;DHT22;3792;47.740;7.606;2022-12-16T00:03:11;-0.50;99.90
7502;DHT22;3792;47.740;7.606;2022-12-16T00:05:38;-0.50;99.90
7502;DHT22;3792;47.740;7.606;2022-12-16T00:08:05;-0.40;99.90
7502;DHT22;3792;47.740;7.606;2022-12-16T00:10:32;-0.40;99.90
7502;DHT22;3792;47.740;7.606;2022-12-16T00:13:19;-0.40;99.90
7502;DHT22;3792;47.740;7.606;2022-12-16T00:15:46;-0.40;99.90
7502;DHT22;3792;47.740;7.606;2022-12-16T00:18:13;-0.40;99.90
7502;DHT22;3792;47.740;7.606;2022-12-16T00:20:44;-0.50;99.90
7502;DHT22;3792;47.740;7.606;2022-12-16T00:23:12;-0.50;99.90
7502;DHT22;3792;47.740;7.606;2022-12-16T00:25:40;-0.40;99.90
7502;DHT22;3792;47.740;7.606;2022-12-16T00:28:08;-0.40;99.90
7502;DHT22;3792;47.740;7.606;2022-12-16T00:30:36;-0.60;99.90
7502;DHT22;3792;47.740;7.606;2022-12-16T00:33:04;-0.70;99.90
7502;DHT22;3792;47.740;7.606;2022-12-16T00:35:31;-0.70;99.90
7502;DHT22;3792;47.740;7.606;2022-12-16T00:37:58;-0.60;99.90
7502;DHT22;3792;47.740;7.606;2022-12-16T00:40:26;-0.60;99.90
7502;DHT22;3792;47.740;7.606;2022-12-16T00:42:53;-0.60;99.90
7502;DHT22;3792;47.740;7.606;2022-12-16T00:45:20;-0.50;99.90
7502;DHT22;3792;47.740;7.606;2022-12-16T00:47:49;-0.50;99.90
7502;DHT22;3792;47.740;7.606;2022-12-16T00:50:17;-0.60;99.90
7502;DHT22;3792;47.740;7.606;2022-12-16T00:52:45;-0.60;99.90
7502;DHT22;3792;47.740;7.606;2022-12-16T00:55:12;-0.60;99.90
7502;DHT22;3792;47.740;7.606;2022-12-16T00:57:39;-0.70;99.90
7502;DHT22;3792;47.740;7.606;2022-12-16T01:00:08;-0.70;99.90
7502;DHT22;3792;47.740;7.606;2022-12-16T01:02:38;-0.70;99.90
7502;DHT22;3792;47.740;7.606;2022-12-16T01:05:08;-0.70;99.90
7502;DHT22;3792;47.740;7.606;2022-12-16T01:07:36;-0.60;99.90
7502;DHT22;3792;47.740;7.606;2022-12-16T01:10:04;-0.70;99.90
7502;DHT22;3792;47.740;7.606;2022-12-16T01:12:32;-0.70;99.90
7502;DHT22;3792;47.740;7.606;2022-12-16T01:15:00;-0.70;99.90
7502;DHT22;3792;47.740;7.606;2022-12-16T01:17:27;-0.60;99.90
7502;DHT22;3792;47.740;7.606;2022-12-16T01:19:54;-0.50;99.90
7502;DHT22;3792;47.740;7.606;2022-12-16T01:22:23;-0.50;99.90
7502;DHT22;3792;47.740;7.606;2022-12-16T01:24:51;-0.50;99.90
7502;DHT22;3792;47.740;7.606;2022-12-16T01:27:18;-0.40;99.90
7502;DHT22;3792;47.740;7.606;2022-12-16T01:29:45;-0.50;99.90
7502;DHT22;3792;47.740;7.606;2022-12-16T01:32:12;-0.50;99.90
7502;DHT22;3792;47.740;7.606;2022-12-16T01:34:40;-0.50;99.90
7502;DHT22;3792;47.740;7.606;2022-12-16T01:37:10;-0.50;99.90
7502;DHT22;3792;47.740;7.606;2022-12-16T01:39:39;-0.40;99.90
7502;DHT22;3792;47.740;7.606;2022-12-16T01:42:10;-0.50;99.90
7502;DHT22;3792;47.740;7.606;2022-12-16T01:44:40;-0.50;99.90
7502;DHT22;3792;47.740;7.606;2022-12-16T01:47:14;-0.50;99.90
7502;DHT22;3792;47.740;7.606;2022-12-16T01:49:44;-0.50;99.90
7502;DHT22;3792;47.740;7.606;2022-12-16T01:52:16;-0.50;99.90
7502;DHT22;3792;47.740;7.606;2022-12-16T01:54:50;-0.50;99.90
7502;DHT22;3792;47.740;7.606;2022-12-16T01:57:23;-0.60;99.90
7502;DHT22;3792;47.740;7.606;2022-12-16T01:59:53;-0.70;99.90
7502;DHT22;3792;47.740;7.606;2022-12-16T02:02:22;-0.80;99.90
7502;DHT22;3792;47.740;7.606;2022-12-16T02:04:49;-0.90;99.90
7502;DHT22;3792;47.740;7.606;2022-12-16T02:07:39;-0.90;99.90
7502;DHT22;3792;47.740;7.606;2022-12-16T02:10:08;-1.00;99.90
7502;DHT22;3792;47.740;7.606;2022-12-16T02:12:41;-0.90;99.90
7502;DHT22;3792;47.740;7.606;2022-12-16T02:15:23;-0.90;99.90
7502;DHT22;3792;47.740;7.606;2022-12-16T02:18:03;-0.80;99.90
7502;DHT22;3792;47.740;7.606;2022-12-16T02:23:51;-0.80;99.90
7502;DHT22;3792;47.740;7.606;2022-12-16T02:29:43;-0.80;99.90
7502;DHT22;3792;47.740;7.606;2022-12-16T02:32:23;-0.90;99.90
7502;DHT22;3792;47.740;7.606;2022-12-16T02:34:57;-1.00;99.90
7502;DHT22;3792;47.740;7.606;2022-12-16T02:37:36;-1.10;99.90
7502;DHT22;3792;47.740;7.606;2022-12-16T02:40:07;-1.00;99.90
7502;DHT22;3792;47.740;7.606;2022-12-16T02:42:43;-1.00;99.90
7502;DHT22;3792;47.740;7.606;2022-12-16T02:45:14;-0.90;99.90
7502;DHT22;3792;47.740;7.606;2022-12-16T02:47:44;-0.90;99.90
7502;DHT22;3792;47.740;7.606;2022-12-16T02:50:17;-0.90;99.90
7502;DHT22;3792;47.740;7.606;2022-12-16T02:52:46;-0.90;99.90
7502;DHT22;3792;47.740;7.606;2022-12-16T02:55:14;-0.90;99.90
7502;DHT22;3792;47.740;7.606;2022-12-16T02:58:01;-1.00;99.90
7502;DHT22;3792;47.740;7.606;2022-12-16T03:00:37;-0.90;99.90
7502;DHT22;3792;47.740;7.606;2022-12-16T03:03:12;-0.90;99.90
7502;DHT22;3792;47.740;7.606;2022-12-16T03:05:45;-0.80;99.90
7502;DHT22;3792;47.740;7.606;2022-12-16T03:08:16;-0.80;99.90
7502;DHT22;3792;47.740;7.606;2022-12-16T03:10:46;-0.80;99.90
7502;DHT22;3792;47.740;7.606;2022-12-16T03:13:17;-0.80;99.90
7502;DHT22;3792;47.740;7.606;2022-12-16T03:15:46;-0.80;99.90
7502;DHT22;3792;47.740;7.606;2022-12-16T03:18:18;-0.80;99.90
7502;DHT22;3792;47.740;7.606;2022-12-16T03:20:49;-0.70;99.90
7502;DHT22;3792;47.740;7.606;2022-12-16T03:23:22;-0.70;99.90
7502;DHT22;3792;47.740;7.606;2022-12-16T03:25:54;-0.80;99.90
7502;DHT22;3792;47.740;7.606;2022-12-16T03:28:30;-0.70;99.90
7502;DHT22;3792;47.740;7.606;2022-12-16T03:31:06;-0.70;99.90
7502;DHT22;3792;47.740;7.606;2022-12-16T03:33:40;-0.80;99.90
7502;DHT22;3792;47.740;7.606;2022-12-16T03:36:15;-0.80;99.90
7502;DHT22;3792;47.740;7.606;2022-12-16T03:38:44;-0.70;99.90
7502;DHT22;3792;47.740;7.606;2022-12-16T03:41:12;-0.70;99.90
7502;DHT22;3792;47.740;7.606;2022-12-16T03:43:41;-0.80;99.90
7502;DHT22;3792;47.740;7.606;2022-12-16T03:46:08;-0.80;99.90
7502;DHT22;3792;47.740;7.606;2022-12-16T03:48:45;-0.70;99.90
7502;DHT22;3792;47.740;7.606;2022-12-16T03:51:12;-0.70;99.90
7502;DHT22;3792;47.740;7.606;2022-12-16T03:53:40;-0.70;99.90
7502;DHT22;3792;47.740;7.606;2022-12-16T03:56:07;-0.80;99.90
7502;DHT22;3792;47.740;7.606;2022-12-16T03:58:34;-0.80;99.90
7502;DHT22;3792;47.740;7.606;2022-12-16T04:01:04;-0.80;99.90
7502;DHT22;3792;47.740;7.606;2022-12-16T04:03:31;-0.80;99.90
7502;DHT22;3792;47.740;7.606;2022-12-16T04:06:00;-0.80;99.90
7502;DHT22;3792;47.740;7.606;2022-12-16T04:08:28;-0.80;99.90
7502;DHT22;3792;47.740;7.606;2022-12-16T04:10:55;-0.80;99.90
7502;DHT22;3792;47.740;7.606;2022-12-16T04:13:40;-0.80;99.90
7502;DHT22;3792;47.740;7.606;2022-12-16T04:16:26;-0.80;99.90
7502;DHT22;3792;47.740;7.606;2022-12-16T04:19:27;-0.70;99.90
7502;DHT22;3792;47.740;7.606;2022-12-16T04:22:17;-0.70;99.90
7502;DHT22;3792;47.740;7.606;2022-12-16T04:25:06;-0.80;99.90
7502;DHT22;3792;47.740;7.606;2022-12-16T04:27:33;-0.80;99.90
7502;DHT22;3792;47.740;7.606;2022-12-16T04:30:00;-0.80;99.90
7502;DHT22;3792;47.740;7.606;2022-12-16T04:32:49;-0.80;99.90
7502;DHT22;3792;47.740;7.606;2022-12-16T04:35:34;-0.80;99.90
7502;DHT22;3792;47.740;7.606;2022-12-16T04:38:20;-0.80;99.90
7502;DHT22;3792;47.740;7.606;2022-12-16T04:41:16;-0.70;99.90
7502;DHT22;3792;47.740;7.606;2022-12-16T04:44:01;-0.70;99.90
7502;DHT22;3792;47.740;7.606;2022-12-16T04:46:46;-0.70;99.90
7502;DHT22;3792;47.740;7.606;2022-12-16T04:49:30;-0.80;99.90
7502;DHT22;3792;47.740;7.606;2022-12-16T04:52:15;-0.80;99.90
7502;DHT22;3792;47.740;7.606;2022-12-16T04:55:01;-0.80;99.90
7502;DHT22;3792;47.740;7.606;2022-12-16T04:57:47;-0.70;99.90
7502;DHT22;3792;47.740;7.606;2022-12-16T05:00:32;-0.80;99.90
7502;DHT22;3792;47.740;7.606;2022-12-16T05:03:16;-0.70;99.90
7502;DHT22;3792;47.740;7.606;2022-12-16T05:06:13;-0.70;99.90
7502;DHT22;3792;47.740;7.606;2022-12-16T05:08:58;-0.70;99.90
7502;DHT22;3792;47.740;7.606;2022-12-16T05:11:44;-0.80;99.90
7502;DHT22;3792;47.740;7.606;2022-12-16T05:14:29;-0.80;99.90
7502;DHT22;3792;47.740;7.606;2022-12-16T05:17:14;-0.90;99.90
7502;DHT22;3792;47.740;7.606;2022-12-16T05:19:58;-0.90;99.90
7502;DHT22;3792;47.740;7.606;2022-12-16T05:22:43;-0.80;99.90
7502;DHT22;3792;47.740;7.606;2022-12-16T05:25:27;-0.80;99.90
7502;DHT22;3792;47.740;7.606;2022-12-16T05:28:12;-0.80;99.90
7502;DHT22;3792;47.740;7.606;2022-12-16T05:30:57;-0.80;99.90
7502;DHT22;3792;47.740;7.606;2022-12-16T05:33:41;-0.80;99.90
7502;DHT22;3792;47.740;7.606;2022-12-16T05:36:28;-0.80;99.90
7502;DHT22;3792;47.740;7.606;2022-12-16T05:39:12;-0.70;99.90
7502;DHT22;3792;47.740;7.606;2022-12-16T05:41:57;-0.70;99.90
7502;DHT22;3792;47.740;7.606;2022-12-16T05:44:43;-0.70;99.90
7502;DHT22;3792;47.740;7.606;2022-12-16T05:47:27;-0.80;99.90
7502;DHT22;3792;47.740;7.606;2022-12-16T05:50:11;-0.90;99.90
7502;DHT22;3792;47.740;7.606;2022-12-16T05:52:56;-0.80;99.90
7502;DHT22;3792;47.740;7.606;2022-12-16T05:55:41;-0.90;99.90
7502;DHT22;3792;47.740;7.606;2022-12-16T05:58:26;-0.90;99.90
7502;DHT22;3792;47.740;7.606;2022-12-16T06:01:13;-0.90;99.90
7502;DHT22;3792;47.740;7.606;2022-12-16T06:03:57;-0.80;99.90
7502;DHT22;3792;47.740;7.606;2022-12-16T06:06:47;-0.80;99.90
7502;DHT22;3792;47.740;7.606;2022-12-16T06:09:31;-0.70;99.90
7502;DHT22;3792;47.740;7.606;2022-12-16T06:12:15;-0.70;99.90
7502;DHT22;3792;47.740;7.606;2022-12-16T06:15:03;-0.70;99.90
7502;DHT22;3792;47.740;7.606;2022-12-16T06:17:49;-0.60;99.90
7502;DHT22;3792;47.740;7.606;2022-12-16T06:20:34;-0.60;99.90
7502;DHT22;3792;47.740;7.606;2022-12-16T06:23:19;-0.60;99.90
7502;DHT22;3792;47.740;7.606;2022-12-16T06:26:03;-0.70;99.90
7502;DHT22;3792;47.740;7.606;2022-12-16T06:28:48;-0.60;99.90
7502;DHT22;3792;47.740;7.606;2022-12-16T06:31:32;-0.60;99.90
7502;DHT22;3792;47.740;7.606;2022-12-16T06:34:18;-0.60;99.90
7502;DHT22;3792;47.740;7.606;2022-12-16T06:37:03;-0.70;99.90
7502;DHT22;3792;47.740;7.606;2022-12-16T06:39:47;-0.70;99.90
7502;DHT22;3792;47.740;7.606;2022-12-16T06:42:31;-0.70;99.90
7502;DHT22;3792;47.740;7.606;2022-12-16T06:45:28;-0.80;99.90
7502;DHT22;3792;47.740;7.606;2022-12-16T06:48:12;-0.80;99.90
7502;DHT22;3792;47.740;7.606;2022-12-16T06:51:03;-0.90;99.90
7502;DHT22;3792;47.740;7.606;2022-12-16T06:53:48;-0.80;99.90
7502;DHT22;3792;47.740;7.606;2022-12-16T06:56:32;-0.80;99.90
7502;DHT22;3792;47.740;7.606;2022-12-16T06:59:17;-0.90;99.90
7502;DHT22;3792;47.740;7.606;2022-12-16T07:02:01;-0.90;99.90
7502;DHT22;3792;47.740;7.606;2022-12-16T07:04:46;-0.90;99.90
7502;DHT22;3792;47.740;7.606;2022-12-16T07:07:32;-0.80;99.90
7502;DHT22;3792;47.740;7.606;2022-12-16T07:10:17;-0.80;99.90
7502;DHT22;3792;47.740;7.606;2022-12-16T07:13:01;-0.90;99.90
7502;DHT22;3792;47.740;7.606;2022-12-16T07:15:46;-0.90;99.90
7502;DHT22;3792;47.740;7.606;2022-12-16T07:18:31;-0.80;99.90
7502;DHT22;3792;47.740;7.606;2022-12-16T07:21:15;-0.80;99.90
7502;DHT22;3792;47.740;7.606;2022-12-16T07:24:01;-0.90;99.90
7502;DHT22;3792;47.740;7.606;2022-12-16T07:26:46;-0.90;99.90
7502;DHT22;3792;47.740;7.606;2022-12-16T07:29:30;-0.90;99.90
7502;DHT22;3792;47.740;7.606;2022-12-16T07:32:15;-0.90;99.90
7502;DHT22;3792;47.740;7.606;2022-12-16T07:34:59;-0.80;99.90
7502;DHT22;3792;47.740;7.606;2022-12-16T07:37:43;-0.90;99.90
7502;DHT22;3792;47.740;7.606;2022-12-16T07:40:26;-0.90;99.90
7502;DHT22;3792;47.740;7.606;2022-12-16T07:43:10;-1.00;99.90
7502;DHT22;3792;47.740;7.606;2022-12-16T07:45:55;-1.00;99.90
7502;DHT22;3792;47.740;7.606;2022-12-16T07:48:39;-0.90;99.90
7502;DHT22;3792;47.740;7.606;2022-12-16T07:51:24;-0.90;99.90
7502;DHT22;3792;47.740;7.606;2022-12-16T07:54:08;-0.90;99.90
7502;DHT22;3792;47.740;7.606;2022-12-16T07:56:54;-0.90;99.90
7502;DHT22;3792;47.740;7.606;2022-12-16T07:59:38;-0.90;99.90
7502;DHT22;3792;47.740;7.606;2022-12-16T08:02:22;-0.90;99.90
7502;DHT22;3792;47.740;7.606;2022-12-16T08:05:07;-0.80;99.90
7502;DHT22;3792;47.740;7.606;2022-12-16T08:07:51;-0.80;99.90
7502;DHT22;3792;47.740;7.606;2022-12-16T08:10:36;-0.80;99.90
7502;DHT22;3792;47.740;7.606;2022-12-16T08:13:21;-0.80;99.90
7502;DHT22;3792;47.740;7.606;2022-12-16T08:16:06;-0.70;99.90
7502;DHT22;3792;47.740;7.606;2022-12-16T18:57:33;-1.50;99.90
7502;DHT22;3792;47.740;7.606;2022-12-16T19:00:18;-1.10;99.90
7502;DHT22;3792;47.740;7.606;2022-12-16T19:03:02;-0.90;99.90
7502;DHT22;3792;47.740;7.606;2022-12-16T19:05:52;-1.10;99.90
7502;DHT22;3792;47.740;7.606;2022-12-16T19:08:37;-1.20;99.90
7502;DHT22;3792;47.740;7.606;2022-12-16T19:11:21;-1.30;99.90
7502;DHT22;3792;47.740;7.606;2022-12-16T19:14:07;-1.30;99.90
7502;DHT22;3792;47.740;7.606;2022-12-16T19:16:51;-1.40;99.90
7502;DHT22;3792;47.740;7.606;2022-12-16T19:19:36;-1.40;99.90
7502;DHT22;3792;47.740;7.606;2022-12-16T19:22:20;-1.40;99.90
7502;DHT22;3792;47.740;7.606;2022-12-16T19:25:05;-1.40;99.90
7502;DHT22;3792;47.740;7.606;2022-12-16T19:27:50;-1.40;99.90
7502;DHT22;3792;47.740;7.606;2022-12-16T19:30:36;-1.40;99.90
7502;DHT22;3792;47.740;7.606;2022-12-16T19:33:20;-1.30;99.90
7502;DHT22;3792;47.740;7.606;2022-12-16T19:36:05;-1.20;99.90
7502;DHT22;3792;47.740;7.606;2022-12-16T19:38:49;-1.20;99.90
7502;DHT22;3792;47.740;7.606;2022-12-16T19:41:34;-1.20;99.90
7502;DHT22;3792;47.740;7.606;2022-12-16T19:44:18;-1.20;99.90
7502;DHT22;3792;47.740;7.606;2022-12-16T19:47:05;-1.10;99.90
7502;DHT22;3792;47.740;7.606;2022-12-16T19:49:49;-1.10;99.90
7502;DHT22;3792;47.740;7.606;2022-12-16T19:52:33;-1.10;99.90
7502;DHT22;3792;47.740;7.606;2022-12-16T19:55:18;-1.00;99.90
7502;DHT22;3792;47.740;7.606;2022-12-16T19:58:02;-1.10;99.90
7502;DHT22;3792;47.740;7.606;2022-12-16T20:00:43;-1.10;99.90
7502;DHT22;3792;47.740;7.606;2022-12-16T20:03:29;-1.10;99.90
7502;DHT22;3792;47.740;7.606;2022-12-16T20:06:14;-1.10;99.90
7502;DHT22;3792;47.740;7.606;2022-12-16T20:08:59;-1.10;99.90
7502;DHT22;3792;47.740;7.606;2022-12-16T20:11:44;-1.20;99.90
7502;DHT22;3792;47.740;7.606;2022-12-16T20:14:28;-1.20;99.90
7502;DHT22;3792;47.740;7.606;2022-12-16T20:17:13;-1.30;99.90
7502;DHT22;3792;47.740;7.606;2022-12-16T20:19:59;-1.30;99.90
7502;DHT22;3792;47.740;7.606;2022-12-16T20:22:44;-1.30;99.90
7502;DHT22;3792;47.740;7.606;2022-12-16T20:25:28;-1.40;99.90
7502;DHT22;3792;47.740;7.606;2022-12-16T20:28:13;-1.30;99.90
7502;DHT22;3792;47.740;7.606;2022-12-16T20:30:59;-1.30;99.90
7502;DHT22;3792;47.740;7.606;2022-12-16T20:33:43;-1.30;99.90
7502;DHT22;3792;47.740;7.606;2022-12-16T20:36:29;-1.40;99.90
7502;DHT22;3792;47.740;7.606;2022-12-16T20:39:14;-1.40;99.90
7502;DHT22;3792;47.740;7.606;2022-12-16T20:41:59;-1.40;99.90
7502;DHT22;3792;47.740;7.606;2022-12-16T20:44:43;-1.40;99.90
7502;DHT22;3792;47.740;7.606;2022-12-16T20:47:27;-1.50;99.90
7502;DHT22;3792;47.740;7.606;2022-12-16T20:50:12;-1.50;99.90
7502;DHT22;3792;47.740;7.606;2022-12-16T20:52:58;-1.50;99.90
7502;DHT22;3792;47.740;7.606;2022-12-16T20:55:42;-1.60;99.90
7502;DHT22;3792;47.740;7.606;2022-12-16T20:58:26;-1.60;99.90
7502;DHT22;3792;47.740;7.606;2022-12-16T21:01:11;-1.60;99.90
7502;DHT22;3792;47.740;7.606;2022-12-16T21:04:10;-1.60;99.90
7502;DHT22;3792;47.740;7.606;2022-12-16T21:06:54;-1.60;99.90
7502;DHT22;3792;47.740;7.606;2022-12-16T21:09:40;-1.60;99.90
7502;DHT22;3792;47.740;7.606;2022-12-16T21:12:24;-1.60;99.90
7502;DHT22;3792;47.740;7.606;2022-12-16T21:15:09;-1.60;99.90
7502;DHT22;3792;47.740;7.606;2022-12-16T21:17:53;-1.60;99.90
7502;DHT22;3792;47.740;7.606;2022-12-16T21:20:42;-1.60;99.90
7502;DHT22;3792;47.740;7.606;2022-12-16T21:23:26;-1.50;99.90
7502;DHT22;3792;47.740;7.606;2022-12-16T21:26:12;-1.50;99.90
7502;DHT22;3792;47.740;7.606;2022-12-16T21:28:56;-1.60;99.90
7502;DHT22;3792;47.740;7.606;2022-12-16T21:31:41;-1.90;99.90
7502;DHT22;3792;47.740;7.606;2022-12-16T21:34:25;-1.90;99.90
7502;DHT22;3792;47.740;7.606;2022-12-16T21:37:10;-1.90;99.90
7502;DHT22;3792;47.740;7.606;2022-12-16T21:39:54;-1.80;99.90
7502;DHT22;3792;47.740;7.606;2022-12-16T21:42:40;-1.70;99.90
7502;DHT22;3792;47.740;7.606;2022-12-16T21:45:25;-1.60;99.90
7502;DHT22;3792;47.740;7.606;2022-12-16T21:48:10;-1.80;99.90
7502;DHT22;3792;47.740;7.606;2022-12-16T21:50:54;-1.80;99.90
7502;DHT22;3792;47.740;7.606;2022-12-16T21:53:39;-1.80;99.90
7502;DHT22;3792;47.740;7.606;2022-12-16T21:56:23;-1.90;99.90
7502;DHT22;3792;47.740;7.606;2022-12-16T21:59:09;-2.00;99.90
7502;DHT22;3792;47.740;7.606;2022-12-16T22:01:54;-2.00;99.90
7502;DHT22;3792;47.740;7.606;2022-12-16T22:04:38;-1.90;99.90
7502;DHT22;3792;47.740;7.606;2022-12-16T22:07:25;-1.80;99.90
7502;DHT22;3792;47.740;7.606;2022-12-16T22:10:10;-1.90;99.90
7502;DHT22;3792;47.740;7.606;2022-12-16T22:12:54;-2.00;99.90
7502;DHT22;3792;47.740;7.606;2022-12-16T22:15:40;-2.00;99.90
7502;DHT22;3792;47.740;7.606;2022-12-16T22:18:24;-2.00;99.90
7502;DHT22;3792;47.740;7.606;2022-12-16T22:21:09;-2.10;99.90
7502;DHT22;3792;47.740;7.606;2022-12-16T22:23:53;-2.10;99.90
7502;DHT22;3792;47.740;7.606;2022-12-16T22:26:37;-2.20;99.90
7502;DHT22;3792;47.740;7.606;2022-12-16T22:29:22;-2.20;99.90
7502;DHT22;3792;47.740;7.606;2022-12-16T22:32:08;-2.30;99.90
7502;DHT22;3792;47.740;7.606;2022-12-16T22:34:52;-2.30;99.90
7502;DHT22;3792;47.740;7.606;2022-12-16T22:37:37;-2.40;99.90
7502;DHT22;3792;47.740;7.606;2022-12-16T22:40:21;-2.40;99.90
7502;DHT22;3792;47.740;7.606;2022-12-16T22:43:06;-2.40;99.90
7502;DHT22;3792;47.740;7.606;2022-12-16T22:45:57;-2.50;99.90
7502;DHT22;3792;47.740;7.606;2022-12-16T22:48:44;-2.60;99.90
7502;DHT22;3792;47.740;7.606;2022-12-16T22:51:29;-2.70;99.90
7502;DHT22;3792;47.740;7.606;2022-12-16T22:54:10;-2.80;99.90
7502;DHT22;3792;47.740;7.606;2022-12-16T22:56:54;-3.00;99.90
7502;DHT22;3792;47.740;7.606;2022-12-16T22:59:38;-3.00;99.90
7502;DHT22;3792;47.740;7.606;2022-12-16T23:02:23;-3.10;99.90
7502;DHT22;3792;47.740;7.606;2022-12-16T23:05:09;-3.10;99.90
7502;DHT22;3792;47.740;7.606;2022-12-16T23:07:54;-3.00;99.90
7502;DHT22;3792;47.740;7.606;2022-12-16T23:10:39;-3.00;99.90
7502;DHT22;3792;47.740;7.606;2022-12-16T23:13:24;-3.00;99.90
7502;DHT22;3792;47.740;7.606;2022-12-16T23:16:09;-3.00;99.90
7502;DHT22;3792;47.740;7.606;2022-12-16T23:18:50;-3.00;99.90
7502;DHT22;3792;47.740;7.606;2022-12-16T23:21:36;-3.10;99.90
7502;DHT22;3792;47.740;7.606;2022-12-16T23:24:20;-3.20;99.90
7502;DHT22;3792;47.740;7.606;2022-12-16T23:27:04;-3.30;99.90
7502;DHT22;3792;47.740;7.606;2022-12-16T23:29:48;-3.40;99.90
7502;DHT22;3792;47.740;7.606;2022-12-16T23:32:33;-3.50;99.90
7502;DHT22;3792;47.740;7.606;2022-12-16T23:35:17;-3.60;99.90
7502;DHT22;3792;47.740;7.606;2022-12-16T23:38:05;-3.60;99.90
7502;DHT22;3792;47.740;7.606;2022-12-16T23:40:54;-3.50;99.90
7502;DHT22;3792;47.740;7.606;2022-12-16T23:43:39;-3.60;99.90
7502;DHT22;3792;47.740;7.606;2022-12-16T23:46:23;-3.60;99.90
7502;DHT22;3792;47.740;7.606;2022-12-16T23:49:07;-3.70;99.90
7502;DHT22;3792;47.740;7.606;2022-12-16T23:51:52;-3.70;99.90
7502;DHT22;3792;47.740;7.606;2022-12-16T23:54:38;-3.80;99.90
7502;DHT22;3792;47.740;7.606;2022-12-16T23:57:23;-3.90;99.90
